sensor_id;sensor_type;location;lat;lon;timestamp;P1;durP1;ratioP1;P2;durP2;ratioP2
21170;SDS011;10743;52.160;20.910;2023-12-20T00:02:16;20.27;;;9.70;;
21170;SDS011;10743;52.160;20.910;2023-12-20T00:04:43;30.23;;;13.03;;
21170;SDS011;10743;52.160;20.910;2023-12-20T00:07:10;19.77;;;9.40;;
21170;SDS011;10743;52.160;20.910;2023-12-20T00:09:37;29.10;;;12.23;;
21170;SDS011;10743;52.160;20.910;2023-12-20T00:12:05;20.60;;;10.17;;
21170;SDS011;10743;52.160;20.910;2023-12-20T00:14:32;27.20;;;11.63;;
21170;SDS011;10743;52.160;20.910;2023-12-20T00:16:59;24.10;;;10.57;;
21170;SDS011;10743;52.160;20.910;2023-12-20T00:19:26;19.33;;;9.00;;
21170;SDS011;10743;52.160;20.910;2023-12-20T00:21:53;23.53;;;9.73;;
21170;SDS011;10743;52.160;20.910;2023-12-20T00:24:20;19.03;;;8.33;;
21170;SDS011;10743;52.160;20.910;2023-12-20T00:26:47;14.90;;;8.00;;
21170;SDS011;10743;52.160;20.910;2023-12-20T00:29:14;18.63;;;9.33;;
21170;SDS011;10743;52.160;20.910;2023-12-20T00:31:41;15.13;;;8.33;;
21170;SDS011;10743;52.160;20.910;2023-12-20T00:34:08;18.50;;;8.43;;
21170;SDS011;10743;52.160;20.910;2023-12-20T00:36:35;14.53;;;8.33;;
21170;SDS011;10743;52.160;20.910;2023-12-20T00:39:03;15.00;;;7.83;;
21170;SDS011;10743;52.160;20.910;2023-12-20T00:41:31;17.60;;;6.70;;
21170;SDS011;10743;52.160;20.910;2023-12-20T00:43:58;14.17;;;7.23;;
21170;SDS011;10743;52.160;20.910;2023-12-20T00:46:25;15.07;;;7.40;;
21170;SDS011;10743;52.160;20.910;2023-12-20T00:48:52;19.27;;;8.33;;
21170;SDS011;10743;52.160;20.910;2023-12-20T00:51:19;15.47;;;7.17;;
21170;SDS011;10743;52.160;20.910;2023-12-20T00:53:46;13.80;;;7.23;;
21170;SDS011;10743;52.160;20.910;2023-12-20T00:56:15;18.23;;;7.20;;
21170;SDS011;10743;52.160;20.910;2023-12-20T00:58:42;15.13;;;7.23;;
21170;SDS011;10743;52.160;20.910;2023-12-20T01:01:10;11.93;;;6.17;;
21170;SDS011;10743;52.160;20.910;2023-12-20T01:03:37;12.57;;;7.33;;
21170;SDS011;10743;52.160;20.910;2023-12-20T01:06:04;9.40;;;6.30;;
21170;SDS011;10743;52.160;20.910;2023-12-20T01:08:32;11.23;;;6.40;;
21170;SDS011;10743;52.160;20.910;2023-12-20T01:11:03;11.13;;;6.17;;
21170;SDS011;10743;52.160;20.910;2023-12-20T01:13:31;17.47;;;6.60;;
21170;SDS011;10743;52.160;20.910;2023-12-20T01:15:58;11.20;;;6.17;;
21170;SDS011;10743;52.160;20.910;2023-12-20T01:18:26;11.47;;;6.67;;
21170;SDS011;10743;52.160;20.910;2023-12-20T01:20:53;11.37;;;6.33;;
21170;SDS011;10743;52.160;20.910;2023-12-20T01:23:20;13.30;;;6.13;;
21170;SDS011;10743;52.160;20.910;2023-12-20T01:25:47;13.17;;;7.20;;
21170;SDS011;10743;52.160;20.910;2023-12-20T01:28:15;11.97;;;6.60;;
21170;SDS011;10743;52.160;20.910;2023-12-20T01:30:42;14.83;;;6.23;;
21170;SDS011;10743;52.160;20.910;2023-12-20T01:33:09;13.87;;;6.40;;
21170;SDS011;10743;52.160;20.910;2023-12-20T01:35:36;13.93;;;6.17;;
21170;SDS011;10743;52.160;20.910;2023-12-20T01:38:04;10.73;;;6.53;;
21170;SDS011;10743;52.160;20.910;2023-12-20T01:40:31;11.57;;;5.77;;
21170;SDS011;10743;52.160;20.910;2023-12-20T01:43:01;14.97;;;6.47;;
21170;SDS011;10743;52.160;20.910;2023-12-20T01:45:35;15.33;;;6.80;;
21170;SDS011;10743;52.160;20.910;2023-12-20T01:48:02;13.20;;;6.60;;
21170;SDS011;10743;52.160;20.910;2023-12-20T01:50:31;13.73;;;6.50;;
21170;SDS011;10743;52.160;20.910;2023-12-20T01:53:02;13.07;;;6.50;;
21170;SDS011;10743;52.160;20.910;2023-12-20T01:55:33;12.70;;;5.67;;
21170;SDS011;10743;52.160;20.910;2023-12-20T01:58:02;10.90;;;5.67;;
21170;SDS011;10743;52.160;20.910;2023-12-20T02:00:31;9.20;;;5.57;;
21170;SDS011;10743;52.160;20.910;2023-12-20T02:02:59;12.77;;;6.00;;
21170;SDS011;10743;52.160;20.910;2023-12-20T02:05:29;11.00;;;5.50;;
21170;SDS011;10743;52.160;20.910;2023-12-20T02:07:57;11.00;;;5.77;;
21170;SDS011;10743;52.160;20.910;2023-12-20T02:10:25;9.43;;;4.97;;
21170;SDS011;10743;52.160;20.910;2023-12-20T02:12:52;12.83;;;6.20;;
21170;SDS011;10743;52.160;20.910;2023-12-20T02:15:20;12.00;;;5.60;;
21170;SDS011;10743;52.160;20.910;2023-12-20T02:17:47;14.83;;;6.17;;
21170;SDS011;10743;52.160;20.910;2023-12-20T02:20:15;14.53;;;6.23;;
21170;SDS011;10743;52.160;20.910;2023-12-20T02:22:42;17.13;;;6.67;;
21170;SDS011;10743;52.160;20.910;2023-12-20T02:25:09;10.30;;;5.87;;
21170;SDS011;10743;52.160;20.910;2023-12-20T02:27:36;17.67;;;7.33;;
21170;SDS011;10743;52.160;20.910;2023-12-20T02:30:05;12.63;;;6.17;;
21170;SDS011;10743;52.160;20.910;2023-12-20T02:32:33;9.70;;;5.70;;
21170;SDS011;10743;52.160;20.910;2023-12-20T02:35:00;14.50;;;6.50;;
21170;SDS011;10743;52.160;20.910;2023-12-20T02:37:27;12.10;;;6.27;;
21170;SDS011;10743;52.160;20.910;2023-12-20T02:39:54;12.50;;;6.17;;
21170;SDS011;10743;52.160;20.910;2023-12-20T02:42:21;8.77;;;5.10;;
21170;SDS011;10743;52.160;20.910;2023-12-20T02:44:48;7.70;;;4.50;;
21170;SDS011;10743;52.160;20.910;2023-12-20T02:47:15;8.50;;;4.63;;
21170;SDS011;10743;52.160;20.910;2023-12-20T02:49:42;9.50;;;4.30;;
21170;SDS011;10743;52.160;20.910;2023-12-20T02:52:10;8.57;;;4.50;;
21170;SDS011;10743;52.160;20.910;2023-12-20T02:54:37;9.77;;;5.27;;
21170;SDS011;10743;52.160;20.910;2023-12-20T02:57:04;7.47;;;4.53;;
21170;SDS011;10743;52.160;20.910;2023-12-20T02:59:31;6.87;;;4.23;;
21170;SDS011;10743;52.160;20.910;2023-12-20T03:01:58;8.73;;;4.37;;
21170;SDS011;10743;52.160;20.910;2023-12-20T03:04:25;10.13;;;4.40;;
21170;SDS011;10743;52.160;20.910;2023-12-20T03:06:52;6.73;;;3.90;;
21170;SDS011;10743;52.160;20.910;2023-12-20T03:09:19;6.23;;;3.37;;
21170;SDS011;10743;52.160;20.910;2023-12-20T03:11:46;6.20;;;3.80;;
21170;SDS011;10743;52.160;20.910;2023-12-20T03:14:13;8.07;;;4.20;;
21170;SDS011;10743;52.160;20.910;2023-12-20T03:16:40;6.80;;;3.80;;
21170;SDS011;10743;52.160;20.910;2023-12-20T03:19:07;5.83;;;3.47;;
21170;SDS011;10743;52.160;20.910;2023-12-20T03:21:34;7.60;;;3.80;;
21170;SDS011;10743;52.160;20.910;2023-12-20T03:24:01;7.47;;;3.50;;
21170;SDS011;10743;52.160;20.910;2023-12-20T03:26:28;6.97;;;3.57;;
21170;SDS011;10743;52.160;20.910;2023-12-20T03:28:55;6.07;;;3.80;;
21170;SDS011;10743;52.160;20.910;2023-12-20T03:31:22;7.87;;;3.77;;
21170;SDS011;10743;52.160;20.910;2023-12-20T03:33:49;9.50;;;4.03;;
21170;SDS011;10743;52.160;20.910;2023-12-20T03:36:19;7.27;;;3.60;;
21170;SDS011;10743;52.160;20.910;2023-12-20T03:38:46;9.53;;;4.37;;
21170;SDS011;10743;52.160;20.910;2023-12-20T03:41:13;8.40;;;3.90;;
21170;SDS011;10743;52.160;20.910;2023-12-20T03:43:40;7.87;;;3.70;;
21170;SDS011;10743;52.160;20.910;2023-12-20T03:46:08;10.17;;;4.00;;
21170;SDS011;10743;52.160;20.910;2023-12-20T03:48:35;8.23;;;4.10;;
21170;SDS011;10743;52.160;20.910;2023-12-20T03:51:02;7.17;;;3.77;;
21170;SDS011;10743;52.160;20.910;2023-12-20T03:53:29;10.40;;;3.97;;
21170;SDS011;10743;52.160;20.910;2023-12-20T03:55:56;8.57;;;3.70;;
21170;SDS011;10743;52.160;20.910;2023-12-20T03:58:23;9.57;;;3.87;;
21170;SDS011;10743;52.160;20.910;2023-12-20T04:00:50;5.30;;;3.57;;
21170;SDS011;10743;52.160;20.910;2023-12-20T04:03:17;7.23;;;3.53;;
21170;SDS011;10743;52.160;20.910;2023-12-20T04:05:44;6.67;;;3.37;;
21170;SDS011;10743;52.160;20.910;2023-12-20T04:08:12;7.60;;;3.90;;
21170;SDS011;10743;52.160;20.910;2023-12-20T04:10:39;8.03;;;3.80;;
21170;SDS011;10743;52.160;20.910;2023-12-20T04:13:06;8.03;;;4.00;;
21170;SDS011;10743;52.160;20.910;2023-12-20T04:15:33;8.47;;;4.03;;
21170;SDS011;10743;52.160;20.910;2023-12-20T04:18:00;6.53;;;4.10;;
21170;SDS011;10743;52.160;20.910;2023-12-20T04:20:27;9.80;;;4.67;;
21170;SDS011;10743;52.160;20.910;2023-12-20T04:22:54;7.50;;;4.27;;
21170;SDS011;10743;52.160;20.910;2023-12-20T04:25:21;5.67;;;3.87;;
21170;SDS011;10743;52.160;20.910;2023-12-20T04:27:48;8.27;;;3.93;;
21170;SDS011;10743;52.160;20.910;2023-12-20T04:30:16;5.63;;;3.73;;
21170;SDS011;10743;52.160;20.910;2023-12-20T04:32:43;7.17;;;3.93;;
21170;SDS011;10743;52.160;20.910;2023-12-20T04:35:10;8.23;;;4.20;;
21170;SDS011;10743;52.160;20.910;2023-12-20T04:37:37;6.37;;;4.10;;
21170;SDS011;10743;52.160;20.910;2023-12-20T04:40:04;8.03;;;4.43;;
21170;SDS011;10743;52.160;20.910;2023-12-20T04:42:32;7.53;;;3.63;;
21170;SDS011;10743;52.160;20.910;2023-12-20T04:44:59;8.87;;;4.33;;
21170;SDS011;10743;52.160;20.910;2023-12-20T04:47:26;8.13;;;4.20;;
21170;SDS011;10743;52.160;20.910;2023-12-20T04:49:53;10.20;;;4.60;;
21170;SDS011;10743;52.160;20.910;2023-12-20T04:52:20;8.77;;;4.37;;
21170;SDS011;10743;52.160;20.910;2023-12-20T04:54:48;7.47;;;3.90;;
21170;SDS011;10743;52.160;20.910;2023-12-20T04:57:15;8.50;;;3.93;;
21170;SDS011;10743;52.160;20.910;2023-12-20T04:59:42;13.30;;;4.40;;
21170;SDS011;10743;52.160;20.910;2023-12-20T05:02:09;8.43;;;4.80;;
21170;SDS011;10743;52.160;20.910;2023-12-20T05:04:36;13.67;;;6.77;;
21170;SDS011;10743;52.160;20.910;2023-12-20T05:07:03;26.60;;;11.67;;
21170;SDS011;10743;52.160;20.910;2023-12-20T05:09:31;38.70;;;14.57;;
21170;SDS011;10743;52.160;20.910;2023-12-20T05:11:59;27.27;;;10.57;;
21170;SDS011;10743;52.160;20.910;2023-12-20T05:14:27;61.27;;;19.30;;
21170;SDS011;10743;52.160;20.910;2023-12-20T05:16:53;88.80;;;24.27;;
21170;SDS011;10743;52.160;20.910;2023-12-20T05:19:20;50.83;;;17.87;;
21170;SDS011;10743;52.160;20.910;2023-12-20T05:21:48;36.03;;;11.77;;
21170;SDS011;10743;52.160;20.910;2023-12-20T05:24:15;42.53;;;14.87;;
21170;SDS011;10743;52.160;20.910;2023-12-20T05:26:42;33.33;;;13.07;;
21170;SDS011;10743;52.160;20.910;2023-12-20T05:29:09;27.43;;;9.93;;
21170;SDS011;10743;52.160;20.910;2023-12-20T05:31:36;13.63;;;6.57;;
21170;SDS011;10743;52.160;20.910;2023-12-20T05:34:03;15.77;;;7.50;;
21170;SDS011;10743;52.160;20.910;2023-12-20T05:36:31;14.70;;;7.07;;
21170;SDS011;10743;52.160;20.910;2023-12-20T05:38:58;17.10;;;7.57;;
21170;SDS011;10743;52.160;20.910;2023-12-20T05:41:25;16.10;;;7.53;;
21170;SDS011;10743;52.160;20.910;2023-12-20T05:43:52;15.03;;;7.63;;
21170;SDS011;10743;52.160;20.910;2023-12-20T05:46:19;15.93;;;7.23;;
21170;SDS011;10743;52.160;20.910;2023-12-20T05:48:47;13.43;;;6.57;;
21170;SDS011;10743;52.160;20.910;2023-12-20T05:51:15;14.00;;;6.53;;
21170;SDS011;10743;52.160;20.910;2023-12-20T05:53:42;11.30;;;6.10;;
21170;SDS011;10743;52.160;20.910;2023-12-20T05:56:10;9.50;;;5.37;;
21170;SDS011;10743;52.160;20.910;2023-12-20T05:58:38;12.90;;;6.37;;
21170;SDS011;10743;52.160;20.910;2023-12-20T06:01:06;15.73;;;7.17;;
21170;SDS011;10743;52.160;20.910;2023-12-20T06:03:35;10.03;;;5.70;;
21170;SDS011;10743;52.160;20.910;2023-12-20T06:06:06;13.67;;;6.00;;
21170;SDS011;10743;52.160;20.910;2023-12-20T06:08:42;10.97;;;5.53;;
21170;SDS011;10743;52.160;20.910;2023-12-20T06:11:10;11.73;;;5.97;;
21170;SDS011;10743;52.160;20.910;2023-12-20T06:13:37;10.10;;;5.23;;
21170;SDS011;10743;52.160;20.910;2023-12-20T06:16:05;11.90;;;6.00;;
21170;SDS011;10743;52.160;20.910;2023-12-20T06:18:33;10.90;;;6.03;;
21170;SDS011;10743;52.160;20.910;2023-12-20T06:21:00;15.10;;;7.00;;
21170;SDS011;10743;52.160;20.910;2023-12-20T06:23:28;12.60;;;6.90;;
21170;SDS011;10743;52.160;20.910;2023-12-20T06:25:55;14.77;;;7.33;;
21170;SDS011;10743;52.160;20.910;2023-12-20T06:28:23;15.30;;;7.20;;
21170;SDS011;10743;52.160;20.910;2023-12-20T06:30:50;15.97;;;7.23;;
21170;SDS011;10743;52.160;20.910;2023-12-20T06:33:18;12.67;;;6.70;;
21170;SDS011;10743;52.160;20.910;2023-12-20T06:35:48;18.23;;;8.50;;
21170;SDS011;10743;52.160;20.910;2023-12-20T06:38:15;14.67;;;8.00;;
21170;SDS011;10743;52.160;20.910;2023-12-20T06:40:44;20.83;;;8.57;;
21170;SDS011;10743;52.160;20.910;2023-12-20T06:43:12;21.23;;;9.93;;
21170;SDS011;10743;52.160;20.910;2023-12-20T06:45:57;19.30;;;10.03;;
21170;SDS011;10743;52.160;20.910;2023-12-20T06:48:26;16.10;;;6.93;;
21170;SDS011;10743;52.160;20.910;2023-12-20T06:50:53;23.97;;;9.17;;
21170;SDS011;10743;52.160;20.910;2023-12-20T06:53:20;18.50;;;7.70;;
21170;SDS011;10743;52.160;20.910;2023-12-20T06:55:47;19.47;;;8.90;;
21170;SDS011;10743;52.160;20.910;2023-12-20T06:58:14;17.63;;;8.13;;
21170;SDS011;10743;52.160;20.910;2023-12-20T07:00:41;15.53;;;8.37;;
21170;SDS011;10743;52.160;20.910;2023-12-20T07:03:09;24.70;;;10.03;;
21170;SDS011;10743;52.160;20.910;2023-12-20T07:05:36;21.87;;;8.80;;
21170;SDS011;10743;52.160;20.910;2023-12-20T07:08:04;14.50;;;6.67;;
21170;SDS011;10743;52.160;20.910;2023-12-20T07:10:32;14.30;;;7.20;;
21170;SDS011;10743;52.160;20.910;2023-12-20T07:12:59;21.90;;;9.37;;
21170;SDS011;10743;52.160;20.910;2023-12-20T07:15:26;15.07;;;8.40;;
21170;SDS011;10743;52.160;20.910;2023-12-20T07:17:53;17.03;;;8.03;;
21170;SDS011;10743;52.160;20.910;2023-12-20T07:20:20;17.67;;;8.27;;
21170;SDS011;10743;52.160;20.910;2023-12-20T07:22:48;13.47;;;6.83;;
21170;SDS011;10743;52.160;20.910;2023-12-20T07:25:15;14.57;;;7.57;;
21170;SDS011;10743;52.160;20.910;2023-12-20T07:27:42;13.03;;;6.17;;
21170;SDS011;10743;52.160;20.910;2023-12-20T07:30:11;12.23;;;6.23;;
21170;SDS011;10743;52.160;20.910;2023-12-20T07:32:38;11.80;;;5.57;;
21170;SDS011;10743;52.160;20.910;2023-12-20T07:35:06;10.70;;;5.27;;
21170;SDS011;10743;52.160;20.910;2023-12-20T07:37:34;18.47;;;9.00;;
21170;SDS011;10743;52.160;20.910;2023-12-20T07:40:01;14.80;;;7.47;;
21170;SDS011;10743;52.160;20.910;2023-12-20T07:42:29;18.27;;;7.43;;
21170;SDS011;10743;52.160;20.910;2023-12-20T07:44:56;16.23;;;6.53;;
21170;SDS011;10743;52.160;20.910;2023-12-20T07:47:24;15.43;;;7.13;;
21170;SDS011;10743;52.160;20.910;2023-12-20T07:49:51;13.43;;;6.03;;
21170;SDS011;10743;52.160;20.910;2023-12-20T07:52:19;14.93;;;6.40;;
21170;SDS011;10743;52.160;20.910;2023-12-20T07:54:48;13.40;;;6.47;;
21170;SDS011;10743;52.160;20.910;2023-12-20T07:57:15;73.30;;;14.43;;
21170;SDS011;10743;52.160;20.910;2023-12-20T07:59:42;11.10;;;5.10;;
21170;SDS011;10743;52.160;20.910;2023-12-20T08:02:10;11.57;;;5.67;;
21170;SDS011;10743;52.160;20.910;2023-12-20T08:04:37;10.50;;;4.90;;
21170;SDS011;10743;52.160;20.910;2023-12-20T08:07:05;8.83;;;4.77;;
21170;SDS011;10743;52.160;20.910;2023-12-20T08:09:32;13.77;;;5.63;;
21170;SDS011;10743;52.160;20.910;2023-12-20T08:12:00;10.60;;;6.20;;
21170;SDS011;10743;52.160;20.910;2023-12-20T08:14:27;14.47;;;7.23;;
21170;SDS011;10743;52.160;20.910;2023-12-20T08:16:54;11.73;;;5.20;;
21170;SDS011;10743;52.160;20.910;2023-12-20T08:19:21;9.80;;;5.47;;
21170;SDS011;10743;52.160;20.910;2023-12-20T08:21:49;9.17;;;4.97;;
21170;SDS011;10743;52.160;20.910;2023-12-20T08:24:16;12.63;;;4.90;;
21170;SDS011;10743;52.160;20.910;2023-12-20T08:26:43;7.47;;;4.07;;
21170;SDS011;10743;52.160;20.910;2023-12-20T08:29:10;12.43;;;5.67;;
21170;SDS011;10743;52.160;20.910;2023-12-20T08:31:40;10.07;;;5.30;;
21170;SDS011;10743;52.160;20.910;2023-12-20T08:34:07;11.90;;;5.40;;
21170;SDS011;10743;52.160;20.910;2023-12-20T08:36:35;10.23;;;5.10;;
21170;SDS011;10743;52.160;20.910;2023-12-20T08:39:02;13.17;;;5.27;;
21170;SDS011;10743;52.160;20.910;2023-12-20T08:41:32;8.67;;;4.53;;
21170;SDS011;10743;52.160;20.910;2023-12-20T08:43:59;12.20;;;5.20;;
21170;SDS011;10743;52.160;20.910;2023-12-20T08:46:26;11.03;;;5.50;;
21170;SDS011;10743;52.160;20.910;2023-12-20T08:48:53;12.27;;;6.17;;
21170;SDS011;10743;52.160;20.910;2023-12-20T08:51:20;10.00;;;5.50;;
21170;SDS011;10743;52.160;20.910;2023-12-20T08:53:50;12.80;;;5.90;;
21170;SDS011;10743;52.160;20.910;2023-12-20T08:56:17;15.10;;;6.73;;
21170;SDS011;10743;52.160;20.910;2023-12-20T08:58:44;7.83;;;4.23;;
21170;SDS011;10743;52.160;20.910;2023-12-20T09:01:14;10.20;;;4.93;;
21170;SDS011;10743;52.160;20.910;2023-12-20T09:03:42;14.17;;;6.30;;
21170;SDS011;10743;52.160;20.910;2023-12-20T09:06:09;12.80;;;6.33;;
21170;SDS011;10743;52.160;20.910;2023-12-20T09:08:37;14.60;;;6.90;;
21170;SDS011;10743;52.160;20.910;2023-12-20T09:11:03;11.77;;;5.60;;
21170;SDS011;10743;52.160;20.910;2023-12-20T09:13:31;16.43;;;6.70;;
21170;SDS011;10743;52.160;20.910;2023-12-20T09:15:58;14.53;;;7.20;;
21170;SDS011;10743;52.160;20.910;2023-12-20T09:18:25;10.30;;;5.10;;
21170;SDS011;10743;52.160;20.910;2023-12-20T09:20:53;9.47;;;5.50;;
21170;SDS011;10743;52.160;20.910;2023-12-20T09:23:21;18.30;;;7.63;;
21170;SDS011;10743;52.160;20.910;2023-12-20T09:25:48;16.03;;;7.10;;
21170;SDS011;10743;52.160;20.910;2023-12-20T09:28:15;16.10;;;8.00;;
21170;SDS011;10743;52.160;20.910;2023-12-20T09:30:42;17.13;;;7.17;;
21170;SDS011;10743;52.160;20.910;2023-12-20T09:33:11;12.53;;;6.40;;
21170;SDS011;10743;52.160;20.910;2023-12-20T09:35:39;15.73;;;7.73;;
21170;SDS011;10743;52.160;20.910;2023-12-20T09:38:06;14.80;;;8.13;;
21170;SDS011;10743;52.160;20.910;2023-12-20T09:40:33;14.53;;;6.37;;
21170;SDS011;10743;52.160;20.910;2023-12-20T09:43:03;19.00;;;8.80;;
21170;SDS011;10743;52.160;20.910;2023-12-20T09:45:32;16.30;;;8.30;;
21170;SDS011;10743;52.160;20.910;2023-12-20T09:47:59;15.27;;;5.60;;
21170;SDS011;10743;52.160;20.910;2023-12-20T09:50:26;16.97;;;7.13;;
21170;SDS011;10743;52.160;20.910;2023-12-20T09:52:54;12.60;;;6.43;;
21170;SDS011;10743;52.160;20.910;2023-12-20T09:55:25;14.03;;;5.43;;
21170;SDS011;10743;52.160;20.910;2023-12-20T09:57:54;11.20;;;6.20;;
21170;SDS011;10743;52.160;20.910;2023-12-20T10:00:21;13.10;;;6.17;;
21170;SDS011;10743;52.160;20.910;2023-12-20T10:05:28;12.60;;;5.77;;
21170;SDS011;10743;52.160;20.910;2023-12-20T10:08:00;11.67;;;5.17;;
21170;SDS011;10743;52.160;20.910;2023-12-20T10:10:29;12.10;;;6.40;;
21170;SDS011;10743;52.160;20.910;2023-12-20T10:13:10;7.63;;;4.37;;
21170;SDS011;10743;52.160;20.910;2023-12-20T10:15:39;17.07;;;7.10;;
21170;SDS011;10743;52.160;20.910;2023-12-20T10:18:08;14.10;;;6.17;;
21170;SDS011;10743;52.160;20.910;2023-12-20T10:20:35;16.60;;;7.40;;
21170;SDS011;10743;52.160;20.910;2023-12-20T10:23:03;16.80;;;7.80;;
21170;SDS011;10743;52.160;20.910;2023-12-20T10:25:30;18.77;;;8.03;;
21170;SDS011;10743;52.160;20.910;2023-12-20T10:28:08;32.17;;;12.97;;
21170;SDS011;10743;52.160;20.910;2023-12-20T10:30:47;13.03;;;7.20;;
21170;SDS011;10743;52.160;20.910;2023-12-20T10:33:22;12.17;;;5.67;;
21170;SDS011;10743;52.160;20.910;2023-12-20T10:35:55;12.17;;;5.60;;
21170;SDS011;10743;52.160;20.910;2023-12-20T10:38:22;6.73;;;4.50;;
21170;SDS011;10743;52.160;20.910;2023-12-20T10:40:52;9.90;;;5.73;;
21170;SDS011;10743;52.160;20.910;2023-12-20T10:43:24;13.00;;;5.53;;
21170;SDS011;10743;52.160;20.910;2023-12-20T10:45:55;12.10;;;5.50;;
21170;SDS011;10743;52.160;20.910;2023-12-20T10:48:23;7.50;;;4.47;;
21170;SDS011;10743;52.160;20.910;2023-12-20T10:50:56;9.33;;;4.63;;
21170;SDS011;10743;52.160;20.910;2023-12-20T10:53:27;9.17;;;4.70;;
21170;SDS011;10743;52.160;20.910;2023-12-20T10:55:55;9.00;;;3.90;;
21170;SDS011;10743;52.160;20.910;2023-12-20T10:58:24;7.57;;;4.23;;
21170;SDS011;10743;52.160;20.910;2023-12-20T11:00:55;8.97;;;4.47;;
21170;SDS011;10743;52.160;20.910;2023-12-20T11:03:32;10.17;;;4.90;;
21170;SDS011;10743;52.160;20.910;2023-12-20T11:09:23;9.87;;;5.40;;
21170;SDS011;10743;52.160;20.910;2023-12-20T11:14:49;18.67;;;6.23;;
21170;SDS011;10743;52.160;20.910;2023-12-20T11:17:19;16.93;;;8.63;;
21170;SDS011;10743;52.160;20.910;2023-12-20T11:22:22;12.73;;;5.67;;
21170;SDS011;10743;52.160;20.910;2023-12-20T11:24:52;11.90;;;5.27;;
21170;SDS011;10743;52.160;20.910;2023-12-20T11:27:20;14.30;;;6.37;;
21170;SDS011;10743;52.160;20.910;2023-12-20T11:29:54;11.83;;;5.83;;
21170;SDS011;10743;52.160;20.910;2023-12-20T11:37:35;16.73;;;7.83;;
21170;SDS011;10743;52.160;20.910;2023-12-20T11:40:07;24.90;;;9.77;;
21170;SDS011;10743;52.160;20.910;2023-12-20T11:42:42;15.43;;;8.03;;
21170;SDS011;10743;52.160;20.910;2023-12-20T11:45:13;19.47;;;8.73;;
21170;SDS011;10743;52.160;20.910;2023-12-20T11:47:44;13.13;;;6.40;;
21170;SDS011;10743;52.160;20.910;2023-12-20T11:50:14;34.10;;;14.13;;
21170;SDS011;10743;52.160;20.910;2023-12-20T11:52:41;24.57;;;9.77;;
21170;SDS011;10743;52.160;20.910;2023-12-20T11:55:08;16.53;;;7.40;;
21170;SDS011;10743;52.160;20.910;2023-12-20T11:57:35;14.87;;;8.13;;
21170;SDS011;10743;52.160;20.910;2023-12-20T12:00:03;11.20;;;6.73;;
21170;SDS011;10743;52.160;20.910;2023-12-20T12:02:38;12.43;;;5.47;;
21170;SDS011;10743;52.160;20.910;2023-12-20T12:05:05;10.80;;;6.00;;
21170;SDS011;10743;52.160;20.910;2023-12-20T12:07:34;12.93;;;5.97;;
21170;SDS011;10743;52.160;20.910;2023-12-20T12:10:02;16.27;;;8.67;;
21170;SDS011;10743;52.160;20.910;2023-12-20T12:12:32;23.53;;;10.83;;
21170;SDS011;10743;52.160;20.910;2023-12-20T12:14:59;22.20;;;11.40;;
21170;SDS011;10743;52.160;20.910;2023-12-20T12:17:26;19.10;;;8.30;;
21170;SDS011;10743;52.160;20.910;2023-12-20T12:20:04;13.83;;;7.30;;
21170;SDS011;10743;52.160;20.910;2023-12-20T12:22:33;12.90;;;6.23;;
21170;SDS011;10743;52.160;20.910;2023-12-20T12:25:11;9.53;;;6.30;;
21170;SDS011;10743;52.160;20.910;2023-12-20T12:27:41;9.23;;;4.70;;
21170;SDS011;10743;52.160;20.910;2023-12-20T12:30:09;10.00;;;5.60;;
21170;SDS011;10743;52.160;20.910;2023-12-20T12:32:39;10.60;;;5.30;;
21170;SDS011;10743;52.160;20.910;2023-12-20T12:35:07;10.10;;;5.73;;
21170;SDS011;10743;52.160;20.910;2023-12-20T12:37:36;9.77;;;5.00;;
21170;SDS011;10743;52.160;20.910;2023-12-20T12:40:09;8.37;;;4.40;;
21170;SDS011;10743;52.160;20.910;2023-12-20T12:42:38;11.77;;;5.43;;
21170;SDS011;10743;52.160;20.910;2023-12-20T12:45:07;13.67;;;5.37;;
21170;SDS011;10743;52.160;20.910;2023-12-20T12:47:35;10.20;;;5.60;;
21170;SDS011;10743;52.160;20.910;2023-12-20T12:50:03;9.10;;;4.73;;
21170;SDS011;10743;52.160;20.910;2023-12-20T12:52:30;16.30;;;6.53;;
21170;SDS011;10743;52.160;20.910;2023-12-20T12:54:57;8.60;;;5.97;;
21170;SDS011;10743;52.160;20.910;2023-12-20T12:57:24;11.13;;;5.17;;
21170;SDS011;10743;52.160;20.910;2023-12-20T12:59:52;9.63;;;5.10;;
21170;SDS011;10743;52.160;20.910;2023-12-20T13:02:19;8.97;;;4.83;;
21170;SDS011;10743;52.160;20.910;2023-12-20T13:04:45;11.33;;;5.07;;
21170;SDS011;10743;52.160;20.910;2023-12-20T13:07:13;7.67;;;4.03;;
21170;SDS011;10743;52.160;20.910;2023-12-20T13:09:40;8.67;;;4.23;;
21170;SDS011;10743;52.160;20.910;2023-12-20T13:12:07;6.80;;;4.23;;
21170;SDS011;10743;52.160;20.910;2023-12-20T13:14:35;9.83;;;4.17;;
21170;SDS011;10743;52.160;20.910;2023-12-20T13:17:05;10.37;;;5.20;;
21170;SDS011;10743;52.160;20.910;2023-12-20T13:19:32;12.03;;;4.70;;
21170;SDS011;10743;52.160;20.910;2023-12-20T13:22:00;9.77;;;4.70;;
21170;SDS011;10743;52.160;20.910;2023-12-20T13:24:27;9.77;;;4.47;;
21170;SDS011;10743;52.160;20.910;2023-12-20T13:26:54;10.30;;;4.53;;
21170;SDS011;10743;52.160;20.910;2023-12-20T13:29:21;8.97;;;4.10;;
21170;SDS011;10743;52.160;20.910;2023-12-20T13:31:48;9.23;;;5.00;;
21170;SDS011;10743;52.160;20.910;2023-12-20T13:34:16;8.07;;;4.30;;
21170;SDS011;10743;52.160;20.910;2023-12-20T13:36:43;15.37;;;5.40;;
21170;SDS011;10743;52.160;20.910;2023-12-20T13:39:13;14.33;;;7.53;;
21170;SDS011;10743;52.160;20.910;2023-12-20T13:41:40;17.50;;;8.67;;
21170;SDS011;10743;52.160;20.910;2023-12-20T13:44:08;29.43;;;12.27;;
21170;SDS011;10743;52.160;20.910;2023-12-20T13:46:35;16.80;;;9.10;;
21170;SDS011;10743;52.160;20.910;2023-12-20T13:49:03;21.00;;;9.30;;
21170;SDS011;10743;52.160;20.910;2023-12-20T13:51:31;13.60;;;6.10;;
21170;SDS011;10743;52.160;20.910;2023-12-20T13:53:58;12.63;;;6.40;;
21170;SDS011;10743;52.160;20.910;2023-12-20T13:56:25;16.97;;;8.83;;
21170;SDS011;10743;52.160;20.910;2023-12-20T13:58:52;26.07;;;12.50;;
21170;SDS011;10743;52.160;20.910;2023-12-20T14:01:19;16.20;;;7.10;;
21170;SDS011;10743;52.160;20.910;2023-12-20T14:03:46;12.73;;;6.80;;
21170;SDS011;10743;52.160;20.910;2023-12-20T14:06:13;16.03;;;8.00;;
21170;SDS011;10743;52.160;20.910;2023-12-20T14:08:41;14.93;;;7.60;;
21170;SDS011;10743;52.160;20.910;2023-12-20T14:11:09;18.97;;;7.50;;
21170;SDS011;10743;52.160;20.910;2023-12-20T14:13:36;15.83;;;6.70;;
21170;SDS011;10743;52.160;20.910;2023-12-20T14:16:04;9.83;;;5.03;;
21170;SDS011;10743;52.160;20.910;2023-12-20T14:18:31;15.60;;;6.43;;
21170;SDS011;10743;52.160;20.910;2023-12-20T14:20:58;16.73;;;6.43;;
21170;SDS011;10743;52.160;20.910;2023-12-20T14:23:25;14.60;;;6.80;;
21170;SDS011;10743;52.160;20.910;2023-12-20T14:25:52;17.40;;;6.30;;
21170;SDS011;10743;52.160;20.910;2023-12-20T14:28:19;10.90;;;5.07;;
21170;SDS011;10743;52.160;20.910;2023-12-20T14:30:46;12.47;;;5.13;;
21170;SDS011;10743;52.160;20.910;2023-12-20T14:33:15;14.13;;;5.37;;
21170;SDS011;10743;52.160;20.910;2023-12-20T14:35:42;22.37;;;7.13;;
21170;SDS011;10743;52.160;20.910;2023-12-20T14:38:11;13.63;;;6.37;;
21170;SDS011;10743;52.160;20.910;2023-12-20T14:40:41;13.60;;;5.97;;
21170;SDS011;10743;52.160;20.910;2023-12-20T14:43:08;12.60;;;6.00;;
21170;SDS011;10743;52.160;20.910;2023-12-20T14:45:35;11.13;;;5.53;;